sensor_id;sensor_type;location;lat;lon;timestamp;pressure;altitude;pressure_sealevel;temperature;humidity
27840;BME280;15207;42.182;24.308;2023-08-17T00:02:13;99204.75;;;22.02;78.09
27840;BME280;15207;42.182;24.308;2023-08-17T00:04:39;99204.75;;;22.02;77.26
27840;BME280;15207;42.182;24.308;2023-08-17T00:07:04;99197.81;;;21.99;77.21
27840;BME280;15207;42.182;24.308;2023-08-17T00:09:30;99204.69;;;21.95;77.54
27840;BME280;15207;42.182;24.308;2023-08-17T00:11:55;99201.13;;;21.95;77.09
27840;BME280;15207;42.182;24.308;2023-08-17T00:14:21;99208.66;;;21.92;77.69
27840;BME280;15207;42.182;24.308;2023-08-17T00:16:48;99203.16;;;21.86;78.50
27840;BME280;15207;42.182;24.308;2023-08-17T00:19:14;99201.47;;;21.85;78.45
27840;BME280;15207;42.182;24.308;2023-08-17T00:21:39;99198.75;;;21.85;79.12
27840;BME280;15207;42.182;24.308;2023-08-17T00:24:05;99197.72;;;21.86;79.08
27840;BME280;15207;42.182;24.308;2023-08-17T00:26:31;99197.28;;;21.82;78.89
27840;BME280;15207;42.182;24.308;2023-08-17T00:28:56;99203.97;;;21.86;78.62
27840;BME280;15207;42.182;24.308;2023-08-17T00:31:21;99197.72;;;21.86;78.67
27840;BME280;15207;42.182;24.308;2023-08-17T00:33:47;99201.66;;;21.83;78.94
27840;BME280;15207;42.182;24.308;2023-08-17T00:36:12;99207.06;;;21.76;79.09
27840;BME280;15207;42.182;24.308;2023-08-17T00:38:38;99204.34;;;21.76;77.80
27840;BME280;15207;42.182;24.308;2023-08-17T00:41:03;99198.25;;;21.74;78.35
27840;BME280;15207;42.182;24.308;2023-08-17T00:43:29;99198.44;;;21.73;77.50
27840;BME280;15207;42.182;24.308;2023-08-17T00:45:54;99197.47;;;21.80;76.96
27840;BME280;15207;42.182;24.308;2023-08-17T00:48:20;99198.25;;;21.74;77.27
27840;BME280;15207;42.182;24.308;2023-08-17T00:50:47;99205.28;;;21.69;78.03
27840;BME280;15207;42.182;24.308;2023-08-17T00:53:14;99200.69;;;21.69;78.21
27840;BME280;15207;42.182;24.308;2023-08-17T00:55:42;99198.16;;;21.67;77.37
27840;BME280;15207;42.182;24.308;2023-08-17T00:58:08;99204.81;;;21.36;78.12
27840;BME280;15207;42.182;24.308;2023-08-17T01:00:34;99192.66;;;21.17;79.66
27840;BME280;15207;42.182;24.308;2023-08-17T01:02:59;99201.53;;;21.04;80.79
27840;BME280;15207;42.182;24.308;2023-08-17T01:05:25;99202.13;;;20.99;78.22
27840;BME280;15207;42.182;24.308;2023-08-17T01:07:50;99196.00;;;20.97;76.30
27840;BME280;15207;42.182;24.308;2023-08-17T01:10:16;99186.75;;;20.92;75.54
27840;BME280;15207;42.182;24.308;2023-08-17T01:15:19;99196.22;;;20.81;75.92
27840;BME280;15207;42.182;24.308;2023-08-17T01:20:52;99186.81;;;20.31;79.60
27840;BME280;15207;42.182;24.308;2023-08-17T01:23:18;99188.97;;;20.36;79.32
27840;BME280;15207;42.182;24.308;2023-08-17T01:25:44;99186.06;;;20.38;78.41
27840;BME280;15207;42.182;24.308;2023-08-17T01:28:09;99187.75;;;20.24;79.34
27840;BME280;15207;42.182;24.308;2023-08-17T01:30:49;99186.88;;;20.08;80.22
27840;BME280;15207;42.182;24.308;2023-08-17T01:33:52;99186.59;;;20.03;82.00
27840;BME280;15207;42.182;24.308;2023-08-17T01:36:25;99190.34;;;20.02;82.02
27840;BME280;15207;42.182;24.308;2023-08-17T01:38:52;99192.94;;;19.80;83.72
27840;BME280;15207;42.182;24.308;2023-08-17T01:41:22;99192.50;;;19.53;87.14
27840;BME280;15207;42.182;24.308;2023-08-17T01:43:48;99185.53;;;19.50;88.55
27840;BME280;15207;42.182;24.308;2023-08-17T01:46:15;99186.16;;;19.61;88.52
27840;BME280;15207;42.182;24.308;2023-08-17T01:48:42;99183.63;;;19.59;88.14
27840;BME280;15207;42.182;24.308;2023-08-17T01:51:11;99184.84;;;19.72;87.18
27840;BME280;15207;42.182;24.308;2023-08-17T01:53:37;99184.66;;;19.73;84.85
27840;BME280;15207;42.182;24.308;2023-08-17T01:56:02;99186.44;;;19.66;84.59
27840;BME280;15207;42.182;24.308;2023-08-17T01:58:28;99185.59;;;19.80;83.85
27840;BME280;15207;42.182;24.308;2023-08-17T02:00:53;99180.50;;;19.86;83.50
27840;BME280;15207;42.182;24.308;2023-08-17T02:03:18;99176.84;;;19.93;82.87
27840;BME280;15207;42.182;24.308;2023-08-17T02:05:47;99178.84;;;20.00;82.10
27840;BME280;15207;42.182;24.308;2023-08-17T02:08:12;99180.38;;;19.94;81.16
27840;BME280;15207;42.182;24.308;2023-08-17T02:10:38;99183.28;;;19.92;80.68
27840;BME280;15207;42.182;24.308;2023-08-17T02:13:03;99182.81;;;19.89;80.46
27840;BME280;15207;42.182;24.308;2023-08-17T02:15:29;99181.78;;;19.90;80.09
27840;BME280;15207;42.182;24.308;2023-08-17T02:17:54;99171.47;;;19.85;79.98
27840;BME280;15207;42.182;24.308;2023-08-17T02:20:20;99172.34;;;19.86;79.48
27840;BME280;15207;42.182;24.308;2023-08-17T02:22:45;99177.19;;;19.90;78.98
27840;BME280;15207;42.182;24.308;2023-08-17T02:25:11;99179.34;;;19.95;78.30
27840;BME280;15207;42.182;24.308;2023-08-17T02:27:36;99183.41;;;19.99;78.10
27840;BME280;15207;42.182;24.308;2023-08-17T02:30:03;99176.41;;;20.05;77.61
27840;BME280;15207;42.182;24.308;2023-08-17T02:32:29;99177.16;;;20.14;77.14
27840;BME280;15207;42.182;24.308;2023-08-17T02:34:54;99179.50;;;20.17;77.21
27840;BME280;15207;42.182;24.308;2023-08-17T02:37:20;99178.00;;;20.14;77.68
27840;BME280;15207;42.182;24.308;2023-08-17T02:39:45;99186.44;;;20.19;77.13
27840;BME280;15207;42.182;24.308;2023-08-17T02:42:11;99168.34;;;20.27;76.59
27840;BME280;15207;42.182;24.308;2023-08-17T02:44:37;99173.59;;;20.28;75.72
27840;BME280;15207;42.182;24.308;2023-08-17T02:47:02;99173.69;;;20.35;75.65
27840;BME280;15207;42.182;24.308;2023-08-17T02:49:28;99173.31;;;20.23;76.44
27840;BME280;15207;42.182;24.308;2023-08-17T02:51:53;99175.47;;;20.13;76.75
27840;BME280;15207;42.182;24.308;2023-08-17T02:54:18;99173.13;;;20.09;76.32
27840;BME280;15207;42.182;24.308;2023-08-17T02:56:44;99166.19;;;20.07;75.98
27840;BME280;15207;42.182;24.308;2023-08-17T02:59:09;99177.91;;;20.07;76.25
27840;BME280;15207;42.182;24.308;2023-08-17T03:01:35;99179.94;;;20.05;76.43
27840;BME280;15207;42.182;24.308;2023-08-17T03:04:00;99177.47;;;19.95;76.88
27840;BME280;15207;42.182;24.308;2023-08-17T03:06:26;99179.16;;;19.96;76.41
27840;BME280;15207;42.182;24.308;2023-08-17T03:08:51;99174.31;;;19.92;76.16
27840;BME280;15207;42.182;24.308;2023-08-17T03:11:18;99175.63;;;19.96;76.24
27840;BME280;15207;42.182;24.308;2023-08-17T03:13:43;99175.81;;;19.94;76.21
27840;BME280;15207;42.182;24.308;2023-08-17T03:16:10;99166.50;;;19.74;77.26
27840;BME280;15207;42.182;24.308;2023-08-17T03:18:36;99179.69;;;19.77;77.28
27840;BME280;15207;42.182;24.308;2023-08-17T03:21:01;99181.88;;;19.81;77.92
27840;BME280;15207;42.182;24.308;2023-08-17T03:23:27;99175.59;;;19.81;78.12
27840;BME280;15207;42.182;24.308;2023-08-17T03:25:53;99172.97;;;19.88;78.23
27840;BME280;15207;42.182;24.308;2023-08-17T03:28:19;99172.53;;;19.84;78.39
27840;BME280;15207;42.182;24.308;2023-08-17T03:30:44;99174.06;;;19.63;79.45
27840;BME280;15207;42.182;24.308;2023-08-17T03:33:10;99178.75;;;19.69;79.53
27840;BME280;15207;42.182;24.308;2023-08-17T03:35:35;99175.56;;;19.66;80.09
27840;BME280;15207;42.182;24.308;2023-08-17T03:38:01;99176.78;;;19.63;80.55
27840;BME280;15207;42.182;24.308;2023-08-17T03:40:26;99178.81;;;19.46;81.45
27840;BME280;15207;42.182;24.308;2023-08-17T03:42:52;99190.28;;;19.33;82.65
27840;BME280;15207;42.182;24.308;2023-08-17T03:45:18;99176.88;;;19.32;83.95
27840;BME280;15207;42.182;24.308;2023-08-17T03:47:43;99173.69;;;19.28;84.65
27840;BME280;15207;42.182;24.308;2023-08-17T03:50:09;99182.50;;;19.07;86.01
27840;BME280;15207;42.182;24.308;2023-08-17T03:52:35;99178.81;;;18.91;88.22
27840;BME280;15207;42.182;24.308;2023-08-17T03:55:01;99180.81;;;18.97;88.52
27840;BME280;15207;42.182;24.308;2023-08-17T03:57:27;99181.13;;;19.02;88.53
27840;BME280;15207;42.182;24.308;2023-08-17T03:59:52;99164.34;;;18.75;89.52
27840;BME280;15207;42.182;24.308;2023-08-17T04:02:18;99185.22;;;18.67;91.23
27840;BME280;15207;42.182;24.308;2023-08-17T04:04:43;99174.06;;;18.61;92.24
27840;BME280;15207;42.182;24.308;2023-08-17T04:07:09;99184.25;;;18.59;92.93
27840;BME280;15207;42.182;24.308;2023-08-17T04:09:34;99176.91;;;18.68;92.98
27840;BME280;15207;42.182;24.308;2023-08-17T04:12:00;99178.47;;;18.62;93.06
27840;BME280;15207;42.182;24.308;2023-08-17T04:14:26;99176.28;;;18.58;94.07
27840;BME280;15207;42.182;24.308;2023-08-17T04:16:51;99179.94;;;18.73;94.72
27840;BME280;15207;42.182;24.308;2023-08-17T04:19:17;99183.22;;;18.92;94.58
27840;BME280;15207;42.182;24.308;2023-08-17T04:21:42;99184.94;;;19.16;94.07
27840;BME280;15207;42.182;24.308;2023-08-17T04:24:08;99184.47;;;19.36;93.06
27840;BME280;15207;42.182;24.308;2023-08-17T04:26:33;99180.44;;;19.55;93.61
27840;BME280;15207;42.182;24.308;2023-08-17T04:28:59;99177.72;;;19.71;93.63
27840;BME280;15207;42.182;24.308;2023-08-17T04:31:24;99182.41;;;19.77;92.71
27840;BME280;15207;42.182;24.308;2023-08-17T04:33:50;99189.63;;;19.85;92.42
27840;BME280;15207;42.182;24.308;2023-08-17T04:36:16;99188.66;;;20.01;91.25
27840;BME280;15207;42.182;24.308;2023-08-17T04:38:42;99191.31;;;20.24;89.60
27840;BME280;15207;42.182;24.308;2023-08-17T04:41:07;99199.34;;;20.47;87.05
27840;BME280;15207;42.182;24.308;2023-08-17T04:43:33;99204.06;;;20.54;85.97
27840;BME280;15207;42.182;24.308;2023-08-17T04:45:58;99199.44;;;20.69;84.11
27840;BME280;15207;42.182;24.308;2023-08-17T04:48:24;99191.53;;;20.90;82.23
27840;BME280;15207;42.182;24.308;2023-08-17T04:50:50;99192.22;;;21.35;79.60
27840;BME280;15207;42.182;24.308;2023-08-17T04:53:16;99195.38;;;21.61;77.00
27840;BME280;15207;42.182;24.308;2023-08-17T04:55:41;99200.75;;;21.76;75.16
27840;BME280;15207;42.182;24.308;2023-08-17T04:58:07;99190.34;;;21.86;74.62
27840;BME280;15207;42.182;24.308;2023-08-17T05:00:32;99199.97;;;22.11;74.95
27840;BME280;15207;42.182;24.308;2023-08-17T05:03:01;99198.06;;;22.46;73.20
27840;BME280;15207;42.182;24.308;2023-08-17T05:05:27;99202.38;;;22.63;70.77
27840;BME280;15207;42.182;24.308;2023-08-17T05:07:52;99195.94;;;22.77;71.16
27840;BME280;15207;42.182;24.308;2023-08-17T05:10:18;99194.31;;;23.03;69.33
27840;BME280;15207;42.182;24.308;2023-08-17T05:12:44;99198.63;;;23.33;69.10
27840;BME280;15207;42.182;24.308;2023-08-17T05:15:09;99195.09;;;23.53;68.11
27840;BME280;15207;42.182;24.308;2023-08-17T05:17:35;99194.66;;;23.69;67.65
27840;BME280;15207;42.182;24.308;2023-08-17T05:20:02;99200.97;;;23.76;67.11
27840;BME280;15207;42.182;24.308;2023-08-17T05:22:29;99195.50;;;23.83;65.78
27840;BME280;15207;42.182;24.308;2023-08-17T05:24:55;99197.78;;;24.13;64.43
27840;BME280;15207;42.182;24.308;2023-08-17T05:27:20;99197.97;;;24.32;63.93
27840;BME280;15207;42.182;24.308;2023-08-17T05:29:46;99195.16;;;24.52;63.25
27840;BME280;15207;42.182;24.308;2023-08-17T05:32:11;99201.03;;;24.63;62.34
27840;BME280;15207;42.182;24.308;2023-08-17T05:34:37;99188.75;;;24.79;62.03
27840;BME280;15207;42.182;24.308;2023-08-17T05:37:02;99197.16;;;24.84;59.57
27840;BME280;15207;42.182;24.308;2023-08-17T05:39:28;99188.50;;;24.94;60.19
27840;BME280;15207;42.182;24.308;2023-08-17T05:41:53;99183.03;;;24.94;60.62
27840;BME280;15207;42.182;24.308;2023-08-17T05:44:19;99180.38;;;25.13;59.37
27840;BME280;15207;42.182;24.308;2023-08-17T05:46:44;99187.19;;;25.35;58.44
27840;BME280;15207;42.182;24.308;2023-08-17T05:49:10;99177.66;;;25.70;58.39
27840;BME280;15207;42.182;24.308;2023-08-17T05:51:35;99181.56;;;25.81;55.56
27840;BME280;15207;42.182;24.308;2023-08-17T05:54:00;99180.94;;;26.05;54.00
27840;BME280;15207;42.182;24.308;2023-08-17T05:56:26;99185.97;;;26.08;53.73
27840;BME280;15207;42.182;24.308;2023-08-17T05:58:53;99186.34;;;26.11;55.32
27840;BME280;15207;42.182;24.308;2023-08-17T06:01:18;99184.94;;;26.27;53.57
27840;BME280;15207;42.182;24.308;2023-08-17T06:03:44;99183.25;;;26.45;54.04
27840;BME280;15207;42.182;24.308;2023-08-17T06:06:11;99188.22;;;26.36;53.12
27840;BME280;15207;42.182;24.308;2023-08-17T06:08:36;99183.38;;;26.38;54.67
27840;BME280;15207;42.182;24.308;2023-08-17T06:11:01;99183.03;;;26.28;54.09
27840;BME280;15207;42.182;24.308;2023-08-17T06:13:27;99176.03;;;26.32;53.64
27840;BME280;15207;42.182;24.308;2023-08-17T06:15:52;99179.31;;;26.41;52.63
27840;BME280;15207;42.182;24.308;2023-08-17T06:18:18;99171.75;;;26.55;52.74
27840;BME280;15207;42.182;24.308;2023-08-17T06:20:45;99177.91;;;26.69;51.96
27840;BME280;15207;42.182;24.308;2023-08-17T06:23:12;99178.09;;;26.86;53.09
27840;BME280;15207;42.182;24.308;2023-08-17T06:25:38;99178.06;;;26.93;51.88
27840;BME280;15207;42.182;24.308;2023-08-17T06:28:05;99178.09;;;27.05;50.48
27840;BME280;15207;42.182;24.308;2023-08-17T06:30:31;99176.19;;;27.05;50.51
27840;BME280;15207;42.182;24.308;2023-08-17T06:32:56;99176.22;;;27.17;51.39
27840;BME280;15207;42.182;24.308;2023-08-17T06:35:22;99175.81;;;27.44;51.35
27840;BME280;15207;42.182;24.308;2023-08-17T06:37:47;99169.72;;;27.54;49.49
27840;BME280;15207;42.182;24.308;2023-08-17T06:40:13;99177.06;;;27.72;49.96
27840;BME280;15207;42.182;24.308;2023-08-17T06:42:38;99180.06;;;27.71;48.46
27840;BME280;15207;42.182;24.308;2023-08-17T06:45:04;99170.63;;;27.91;48.46
27840;BME280;15207;42.182;24.308;2023-08-17T06:47:30;99173.22;;;28.21;47.41
27840;BME280;15207;42.182;24.308;2023-08-17T06:49:55;99170.03;;;28.24;47.60
27840;BME280;15207;42.182;24.308;2023-08-17T06:52:23;99177.75;;;28.51;47.30
27840;BME280;15207;42.182;24.308;2023-08-17T06:54:48;99168.53;;;28.46;46.58
27840;BME280;15207;42.182;24.308;2023-08-17T06:57:14;99165.53;;;28.47;46.04
27840;BME280;15207;42.182;24.308;2023-08-17T06:59:39;99169.97;;;28.48;45.92
27840;BME280;15207;42.182;24.308;2023-08-17T07:02:05;99168.09;;;28.78;45.74
27840;BME280;15207;42.182;24.308;2023-08-17T07:04:31;99161.50;;;28.91;44.61
27840;BME280;15207;42.182;24.308;2023-08-17T07:06:56;99161.19;;;29.04;44.23
27840;BME280;15207;42.182;24.308;2023-08-17T07:09:22;99154.84;;;29.04;43.71
27840;BME280;15207;42.182;24.308;2023-08-17T07:11:47;99159.44;;;29.15;44.35
27840;BME280;15207;42.182;24.308;2023-08-17T07:14:13;99159.66;;;28.97;43.71
27840;BME280;15207;42.182;24.308;2023-08-17T07:16:38;99161.09;;;29.16;42.90
27840;BME280;15207;42.182;24.308;2023-08-17T07:19:04;99164.72;;;29.17;41.35
27840;BME280;15207;42.182;24.308;2023-08-17T07:21:29;99164.88;;;29.27;40.79
27840;BME280;15207;42.182;24.308;2023-08-17T07:23:55;99168.34;;;29.35;42.03
27840;BME280;15207;42.182;24.308;2023-08-17T07:26:20;99167.91;;;29.43;41.61
27840;BME280;15207;42.182;24.308;2023-08-17T07:28:47;99164.13;;;29.49;42.25
27840;BME280;15207;42.182;24.308;2023-08-17T07:31:12;99164.25;;;29.72;40.41
27840;BME280;15207;42.182;24.308;2023-08-17T07:33:39;99162.56;;;29.88;41.38
27840;BME280;15207;42.182;24.308;2023-08-17T07:36:04;99163.97;;;30.07;41.16
27840;BME280;15207;42.182;24.308;2023-08-17T07:38:30;99163.50;;;30.11;42.15
27840;BME280;15207;42.182;24.308;2023-08-17T07:40:55;99165.31;;;30.05;39.72
27840;BME280;15207;42.182;24.308;2023-08-17T07:43:21;99168.84;;;30.00;39.46
27840;BME280;15207;42.182;24.308;2023-08-17T07:45:53;99161.44;;;30.06;40.02
27840;BME280;15207;42.182;24.308;2023-08-17T07:48:18;99161.69;;;30.44;38.85
27840;BME280;15207;42.182;24.308;2023-08-17T07:50:48;99166.22;;;30.50;38.71
27840;BME280;15207;42.182;24.308;2023-08-17T07:53:14;99167.75;;;30.18;37.11
27840;BME280;15207;42.182;24.308;2023-08-17T07:55:40;99169.28;;;30.31;37.25
27840;BME280;15207;42.182;24.308;2023-08-17T07:58:05;99157.94;;;30.50;37.57
27840;BME280;15207;42.182;24.308;2023-08-17T08:00:31;99155.78;;;30.57;37.08
27840;BME280;15207;42.182;24.308;2023-08-17T08:02:57;99160.13;;;30.70;37.31
27840;BME280;15207;42.182;24.308;2023-08-17T08:05:23;99154.69;;;30.81;36.00
27840;BME280;15207;42.182;24.308;2023-08-17T08:07:49;99150.78;;;30.77;36.92
27840;BME280;15207;42.182;24.308;2023-08-17T08:10:15;99149.28;;;30.91;37.03
27840;BME280;15207;42.182;24.308;2023-08-17T08:12:40;99143.44;;;31.15;36.05
27840;BME280;15207;42.182;24.308;2023-08-17T08:15:06;99138.47;;;31.45;35.93
27840;BME280;15207;42.182;24.308;2023-08-17T08:17:32;99144.72;;;31.30;35.99
27840;BME280;15207;42.182;24.308;2023-08-17T08:19:57;99134.84;;;30.84;36.64
27840;BME280;15207;42.182;24.308;2023-08-17T08:22:23;99144.59;;;31.19;36.63
27840;BME280;15207;42.182;24.308;2023-08-17T08:24:49;99140.38;;;31.39;35.95
27840;BME280;15207;42.182;24.308;2023-08-17T08:27:14;99135.34;;;31.74;36.34
27840;BME280;15207;42.182;24.308;2023-08-17T08:29:40;99133.69;;;31.73;34.31
27840;BME280;15207;42.182;24.308;2023-08-17T08:32:05;99127.03;;;31.69;35.68
27840;BME280;15207;42.182;24.308;2023-08-17T08:34:31;99137.16;;;31.25;35.50
27840;BME280;15207;42.182;24.308;2023-08-17T08:36:56;99136.16;;;31.04;35.91
27840;BME280;15207;42.182;24.308;2023-08-17T08:39:24;99132.03;;;30.56;36.21
27840;BME280;15207;42.182;24.308;2023-08-17T08:41:50;99127.66;;;30.60;36.81
27840;BME280;15207;42.182;24.308;2023-08-17T08:44:16;99138.19;;;30.64;36.59
27840;BME280;15207;42.182;24.308;2023-08-17T08:46:44;99123.75;;;30.34;36.96
27840;BME280;15207;42.182;24.308;2023-08-17T08:49:10;99125.50;;;30.40;37.05
27840;BME280;15207;42.182;24.308;2023-08-17T08:51:40;99125.75;;;30.39;37.17
27840;BME280;15207;42.182;24.308;2023-08-17T08:54:08;99123.63;;;30.68;36.89
27840;BME280;15207;42.182;24.308;2023-08-17T08:56:38;99126.81;;;31.10;36.43
27840;BME280;15207;42.182;24.308;2023-08-17T08:59:07;99117.22;;;30.90;36.44
27840;BME280;15207;42.182;24.308;2023-08-17T09:01:34;99111.75;;;31.28;36.68
27840;BME280;15207;42.182;24.308;2023-08-17T09:04:00;99116.31;;;31.12;36.38
27840;BME280;15207;42.182;24.308;2023-08-17T09:06:27;99119.34;;;31.38;36.54
27840;BME280;15207;42.182;24.308;2023-08-17T09:08:55;99115.38;;;31.28;36.07
27840;BME280;15207;42.182;24.308;2023-08-17T09:11:21;99105.75;;;31.31;36.25
27840;BME280;15207;42.182;24.308;2023-08-17T09:13:47;99108.84;;;31.40;36.35
27840;BME280;15207;42.182;24.308;2023-08-17T09:16:12;99105.28;;;31.45;35.93
27840;BME280;15207;42.182;24.308;2023-08-17T09:18:38;99108.38;;;31.48;36.44
27840;BME280;15207;42.182;24.308;2023-08-17T09:21:03;99103.94;;;31.52;36.16
27840;BME280;15207;42.182;24.308;2023-08-17T09:23:29;99103.59;;;31.82;35.53
27840;BME280;15207;42.182;24.308;2023-08-17T09:25:54;99106.66;;;31.85;35.71
27840;BME280;15207;42.182;24.308;2023-08-17T09:28:23;99097.59;;;31.52;35.36
27840;BME280;15207;42.182;24.308;2023-08-17T09:30:54;99102.69;;;31.33;36.28
27840;BME280;15207;42.182;24.308;2023-08-17T09:33:23;99090.81;;;31.32;36.61
27840;BME280;15207;42.182;24.308;2023-08-17T09:35:50;99088.59;;;31.34;36.44
27840;BME280;15207;42.182;24.308;2023-08-17T09:38:16;99094.41;;;31.71;36.57
27840;BME280;15207;42.182;24.308;2023-08-17T09:40:42;99084.88;;;31.51;35.49
27840;BME280;15207;42.182;24.308;2023-08-17T09:43:08;99103.63;;;31.16;35.63
27840;BME280;15207;42.182;24.308;2023-08-17T09:45:36;99081.03;;;31.24;36.07
27840;BME280;15207;42.182;24.308;2023-08-17T09:48:02;99080.94;;;31.09;35.89
27840;BME280;15207;42.182;24.308;2023-08-17T09:50:27;99080.09;;;31.08;36.87
27840;BME280;15207;42.182;24.308;2023-08-17T09:52:53;99074.38;;;31.20;36.12
27840;BME280;15207;42.182;24.308;2023-08-17T09:55:23;99076.50;;;31.08;36.48
27840;BME280;15207;42.182;24.308;2023-08-17T09:57:49;99072.72;;;31.19;36.37
27840;BME280;15207;42.182;24.308;2023-08-17T10:00:20;99068.72;;;31.05;36.49
27840;BME280;15207;42.182;24.308;2023-08-17T10:02:50;99060.47;;;31.43;36.24
27840;BME280;15207;42.182;24.308;2023-08-17T10:05:18;99067.88;;;31.37;35.85
27840;BME280;15207;42.182;24.308;2023-08-17T10:07:54;99062.31;;;31.32;35.96
27840;BME280;15207;42.182;24.308;2023-08-17T10:10:26;99048.06;;;31.93;35.18
27840;BME280;15207;42.182;24.308;2023-08-17T10:15:21;99050.69;;;31.73;35.31
27840;BME280;15207;42.182;24.308;2023-08-17T10:18:07;99050.97;;;31.76;35.12
27840;BME280;15207;42.182;24.308;2023-08-17T10:20:36;99041.34;;;31.84;35.22
27840;BME280;15207;42.182;24.308;2023-08-17T10:23:07;99042.63;;;31.66;35.04
27840;BME280;15207;42.182;24.308;2023-08-17T10:25:35;99033.75;;;31.59;35.77
27840;BME280;15207;42.182;24.308;2023-08-17T10:28:01;99034.75;;;31.90;35.05
27840;BME280;15207;42.182;24.308;2023-08-17T10:30:29;99031.72;;;31.97;35.23
27840;BME280;15207;42.182;24.308;2023-08-17T10:32:55;99026.59;;;32.22;34.34
27840;BME280;15207;42.182;24.308;2023-08-17T10:35:22;99028.47;;;32.11;34.57
27840;BME280;15207;42.182;24.308;2023-08-17T10:37:48;99036.56;;;32.33;34.63
27840;BME280;15207;42.182;24.308;2023-08-17T10:40:13;99034.63;;;32.28;33.64
27840;BME280;15207;42.182;24.308;2023-08-17T10:42:39;99022.13;;;32.15;34.45
27840;BME280;15207;42.182;24.308;2023-08-17T10:45:27;99021.28;;;32.10;33.53
27840;BME280;15207;42.182;24.308;2023-08-17T10:50:35;99025.72;;;32.16;33.23
27840;BME280;15207;42.182;24.308;2023-08-17T10:53:09;99023.56;;;32.28;33.30
27840;BME280;15207;42.182;24.308;2023-08-17T10:55:44;99021.41;;;32.46;33.73
27840;BME280;15207;42.182;24.308;2023-08-17T10:58:10;99017.00;;;32.87;32.97
27840;BME280;15207;42.182;24.308;2023-08-17T11:00:42;99012.88;;;33.05;32.67
27840;BME280;15207;42.182;24.308;2023-08-17T11:03:17;99012.31;;;32.71;32.85
27840;BME280;15207;42.182;24.308;2023-08-17T11:05:44;99022.28;;;32.67;32.44
27840;BME280;15207;42.182;24.308;2023-08-17T11:11:10;99005.06;;;32.55;33.46
27840;BME280;15207;42.182;24.308;2023-08-17T11:13:43;99009.22;;;32.73;32.48
27840;BME280;15207;42.182;24.308;2023-08-17T11:16:10;99010.31;;;32.51;33.10
27840;BME280;15207;42.182;24.308;2023-08-17T11:18:36;99008.66;;;32.45;32.43
27840;BME280;15207;42.182;24.308;2023-08-17T11:21:03;99002.28;;;32.44;33.23
27840;BME280;15207;42.182;24.308;2023-08-17T11:23:31;98998.94;;;32.37;33.13
27840;BME280;15207;42.182;24.308;2023-08-17T11:25:56;98997.34;;;32.72;32.83
27840;BME280;15207;42.182;24.308;2023-08-17T11:28:23;98991.53;;;33.05;32.07
27840;BME280;15207;42.182;24.308;2023-08-17T11:31:00;98984.00;;;33.37;31.80
27840;BME280;15207;42.182;24.308;2023-08-17T11:33:26;98982.66;;;33.19;31.38
27840;BME280;15207;42.182;24.308;2023-08-17T11:35:54;98993.72;;;33.08;31.54
27840;BME280;15207;42.182;24.308;2023-08-17T11:38:19;98989.84;;;33.30;31.09
27840;BME280;15207;42.182;24.308;2023-08-17T11:40:44;98982.66;;;33.19;31.25
27840;BME280;15207;42.182;24.308;2023-08-17T11:43:10;98980.16;;;33.12;31.09
27840;BME280;15207;42.182;24.308;2023-08-17T11:45:35;98983.75;;;33.13;31.72
27840;BME280;15207;42.182;24.308;2023-08-17T11:48:01;98979.59;;;33.10;31.51
27840;BME280;15207;42.182;24.308;2023-08-17T11:50:26;98979.31;;;33.22;31.33
27840;BME280;15207;42.182;24.308;2023-08-17T11:52:52;98972.34;;;33.30;30.43
27840;BME280;15207;42.182;24.308;2023-08-17T11:55:17;98969.88;;;33.13;30.97
27840;BME280;15207;42.182;24.308;2023-08-17T11:57:45;98973.75;;;33.17;31.18
27840;BME280;15207;42.182;24.308;2023-08-17T12:00:16;98972.63;;;33.28;29.69
27840;BME280;15207;42.182;24.308;2023-08-17T12:02:42;98967.09;;;33.28;29.90
27840;BME280;15207;42.182;24.308;2023-08-17T12:05:08;98971.53;;;33.34;29.59
27840;BME280;15207;42.182;24.308;2023-08-17T12:07:35;98959.88;;;33.32;29.43
27840;BME280;15207;42.182;24.308;2023-08-17T12:10:03;98982.88;;;33.38;29.18
27840;BME280;15207;42.182;24.308;2023-08-17T12:12:28;98952.91;;;33.35;29.31
27840;BME280;15207;42.182;24.308;2023-08-17T12:14:54;98955.19;;;33.22;29.33
27840;BME280;15207;42.182;24.308;2023-08-17T12:17:22;98951.28;;;33.29;29.82
27840;BME280;15207;42.182;24.308;2023-08-17T12:19:50;98945.97;;;33.37;29.81
27840;BME280;15207;42.182;24.308;2023-08-17T12:22:23;98938.78;;;33.36;29.80
27840;BME280;15207;42.182;24.308;2023-08-17T12:24:49;98934.38;;;33.30;30.07
27840;BME280;15207;42.182;24.308;2023-08-17T12:27:14;98932.66;;;33.45;29.63
27840;BME280;15207;42.182;24.308;2023-08-17T12:29:50;98935.41;;;33.60;29.51
27840;BME280;15207;42.182;24.308;2023-08-17T12:32:18;98933.50;;;33.40;28.98
27840;BME280;15207;42.182;24.308;2023-08-17T12:34:44;98930.25;;;33.17;29.60
27840;BME280;15207;42.182;24.308;2023-08-17T12:37:09;98940.19;;;33.29;30.25
27840;BME280;15207;42.182;24.308;2023-08-17T12:39:36;98920.47;;;33.41;29.30
27840;BME280;15207;42.182;24.308;2023-08-17T12:42:02;98927.09;;;33.60;28.72
27840;BME280;15207;42.182;24.308;2023-08-17T12:44:28;98914.63;;;33.42;28.68
27840;BME280;15207;42.182;24.308;2023-08-17T12:46:53;98917.72;;;33.35;28.88
27840;BME280;15207;42.182;24.308;2023-08-17T12:49:19;98919.91;;;33.44;29.38
27840;BME280;15207;42.182;24.308;2023-08-17T12:51:44;98922.81;;;33.79;29.12
27840;BME280;15207;42.182;24.308;2023-08-17T12:54:10;98918.56;;;33.97;29.26
27840;BME280;15207;42.182;24.308;2023-08-17T12:56:35;98921.22;;;33.67;29.10
27840;BME280;15207;42.182;24.308;2023-08-17T12:59:01;98914.88;;;33.61;29.60
27840;BME280;15207;42.182;24.308;2023-08-17T13:01:26;98910.06;;;33.77;28.93